SondeTracker

Meteorological Radiosondes Database

Operations

Sounding was ended - last measurement: 2022-12-07 12:44:00z

MAP
About Radiosonde

Number: D22043153 (22043153)

Launch Site: Lincoln [IL] (US)

Type: DFM17

AUX: NO

Frequency: 405.011 MHz

Max Speed: 280 km/h at 10624 m

Average Speed: 167.22 km/h

Max Altitude: 28368 m

Average Ascent Speed: 4.79 m/s

Average Descent Speed: 0.00 m/s

Status: UNKNOWN

Status Changes
Launch Site Type AUX Frequency Status Finder Landing Point Description Changes made by
APRS Statistics

Received Frames: 95

First Frame [UTC]: 2022-12-07 11:29:36z

Last Frame [UTC]: 2022-12-07 12:44:00z

Receivers: K9SWX

Flight Time: 01:14:24 h

Distance From First Measurement: 174.62 km

Nearest City: Lafayette [IN] (US) [7.23 km]

Nearest Hunter: [0.00 km]

Ground Altitude: 198 m

Distance from QTH: 0.00 km

APRS Data
Receiver Number Date/Time [UTC] φ λ Course [°] Speed [km/h] Altitude [m] Description
K9SWXD220431532022-12-07 12:44:0040.3446-86.9063725228368Clb=0.2m/s t=-273.0C h=-1.0% p=-1.0hPa 405.011 MHz Type=DFM17 ser=22043153 Radiosonde
K9SWXD220431532022-12-07 12:43:2340.3459-86.91291165428210Clb=5.3m/s t=-273.0C h=-1.0% p=-1.0hPa 405.011 MHz Type=DFM17 ser=22043153 Radiosonde
K9SWXD220431532022-12-07 12:42:5340.3473-86.9219818527958Clb=12.0m/s t=-273.0C h=-1.0% p=-1.0hPa 405.011 MHz Type=DFM17 ser=22043153 Radiosonde
K9SWXD220431532022-12-07 12:42:1140.3479-86.9267935227810Clb=9.9m/s t=-57.1C h=-1.0% p=-1.0hPa 405.011 MHz Type=DFM17 ser=22043153 Radiosonde
K9SWXD220431532022-12-07 12:41:3940.3489-86.9331677427606Clb=3.2m/s t=-56.1C h=-1.0% p=-1.0hPa 405.011 MHz Type=DFM17 ser=22043153 Radiosonde
K9SWXD220431532022-12-07 12:41:0740.3495-86.9393838127435Clb=9.2m/s t=-56.4C h=-1.0% p=-1.0hPa 405.011 MHz Type=DFM17 ser=22043153 Radiosonde
K9SWXD220431532022-12-07 12:40:1840.3651-87.0558914424028Clb=3.4m/s t=-59.6C h=-1.0% p=-1.0hPa 405.011 MHz Type=DFM17 ser=22043153 Radiosonde
K9SWXD220431532022-12-07 12:38:5840.3652-87.0626785223847Clb=1.6m/s t=-60.0C h=-1.0% p=-1.0hPa 405.011 MHz Type=DFM17 ser=22043153 Radiosonde
K9SWXD220431532022-12-07 12:37:4840.3648-87.0673373323697Clb=2.5m/s t=-60.0C h=-1.0% p=-1.0hPa 405.011 MHz Type=DFM17 ser=22043153 Radiosonde
K9SWXD220431532022-12-07 12:36:3740.3644-87.071985723539Clb=4.3m/s t=-60.5C h=-1.0% p=-1.0hPa 405.011 MHz Type=DFM17 ser=22043153 Radiosonde
K9SWXD220431532022-12-07 12:35:2540.365-87.07791098023326Clb=1.2m/s t=-23.8C h=-1.0% p=-1.0hPa 405.011 MHz Type=DFM17 ser=22043153 Radiosonde
K9SWXD220431532022-12-07 12:34:0940.3658-87.0849856923147Clb=6.3m/s t=-60.7C h=-1.0% p=-1.0hPa 405.011 MHz Type=DFM17 ser=22043153 Radiosonde
K9SWXD220431532022-12-07 12:32:5740.3655-87.0926898522951Clb=3.0m/s t=-62.3C h=-1.0% p=-1.0hPa 405.011 MHz Type=DFM17 ser=22043153 Radiosonde
K9SWXD220431532022-12-07 12:31:4440.3653-87.0946705722907Clb=5.2m/s t=-62.7C h=-1.0% p=-1.0hPa 405.011 MHz Type=DFM17 ser=22043153 Radiosonde
K9SWXD220431532022-12-07 12:29:0940.3649-87.1064902822557Clb=4.9m/s t=-62.3C h=-1.0% p=-1.0hPa 405.011 MHz Type=DFM17 ser=22043153 Radiosonde
K9SWXD220431532022-12-07 12:27:5140.3657-87.11081025622404Clb=8.0m/s t=-61.7C h=-1.0% p=-1.0hPa 405.011 MHz Type=DFM17 ser=22043153 Radiosonde
K9SWXD220431532022-12-07 12:26:3440.3671-87.1196925622171Clb=4.8m/s t=-62.6C h=-1.0% p=-1.0hPa 405.011 MHz Type=DFM17 ser=22043153 Radiosonde
K9SWXD220431532022-12-07 12:25:2040.3676-87.1267826922025Clb=7.3m/s t=-63.0C h=-1.0% p=-1.0hPa 405.011 MHz Type=DFM17 ser=22043153 Radiosonde
K9SWXD220431532022-12-07 12:24:0140.3662-87.1348667421862Clb=3.9m/s t=-85.1C h=-1.0% p=-1.0hPa 405.011 MHz Type=DFM17 ser=22043153 Radiosonde
K9SWXD220431532022-12-07 12:22:4640.3582-87.1558555721381Clb=6.3m/s t=2.7C h=-1.0% p=-1.0hPa 405.011 MHz Type=DFM17 ser=22043153 Radiosonde
K9SWXD220431532022-12-07 12:21:5740.3563-87.1602506121227Clb=3.4m/s t=3.1C h=-1.0% p=-1.0hPa 405.011 MHz Type=DFM17 ser=22043153 Radiosonde
K9SWXD220431532022-12-07 12:21:0740.3355-87.2854859118326Clb=5.1m/s t=-65.3C h=-1.0% p=-1.0hPa 405.011 MHz Type=DFM17 ser=22043153 Radiosonde
K9SWXD220431532022-12-07 12:20:0040.3349-87.29668210218160Clb=4.6m/s t=-65.2C h=-1.0% p=-1.0hPa 405.011 MHz Type=DFM17 ser=22043153 Radiosonde
K9SWXD220431532022-12-07 12:18:4840.3347-87.3051919618043Clb=3.5m/s t=-65.7C h=-1.0% p=-1.0hPa 405.011 MHz Type=DFM17 ser=22043153 Radiosonde
K9SWXD220431532022-12-07 12:17:4440.3343-87.3157789817911Clb=2.6m/s t=-66.6C h=-1.0% p=-1.0hPa 405.011 MHz Type=DFM17 ser=22043153 Radiosonde
K9SWXD220431532022-12-07 12:16:4540.3326-87.32797713117774Clb=5.7m/s t=-67.4C h=-1.0% p=-1.0hPa 405.011 MHz Type=DFM17 ser=22043153 Radiosonde
K9SWXD220431532022-12-07 12:15:4840.3302-87.34017212417631Clb=5.9m/s t=-67.3C h=-1.0% p=-1.0hPa 405.011 MHz Type=DFM17 ser=22043153 Radiosonde
K9SWXD220431532022-12-07 12:14:5140.328-87.35268012217470Clb=4.7m/s t=-66.9C h=-1.0% p=-1.0hPa 405.011 MHz Type=DFM17 ser=22043153 Radiosonde
K9SWXD220431532022-12-07 12:13:5040.3261-87.3647513317320Clb=5.0m/s t=-67.3C h=-1.0% p=-1.0hPa 405.011 MHz Type=DFM17 ser=22043153 Radiosonde
K9SWXD220431532022-12-07 12:12:4140.3239-87.37678012817159Clb=5.2m/s t=-67.0C h=-1.0% p=-1.0hPa 405.011 MHz Type=DFM17 ser=22043153 Radiosonde
K9SWXD220431532022-12-07 12:11:3040.3219-87.38927912217011Clb=5.6m/s t=-66.4C h=-1.0% p=-1.0hPa 405.011 MHz Type=DFM17 ser=22043153 Radiosonde
K9SWXD220431532022-12-07 12:10:2440.3199-87.40238311916862Clb=3.7m/s t=-66.7C h=-1.0% p=-1.0hPa 405.011 MHz Type=DFM17 ser=22043153 Radiosonde
K9SWXD220431532022-12-07 12:09:0940.3185-87.41447813116737Clb=5.6m/s t=-65.9C h=-1.0% p=-1.0hPa 405.011 MHz Type=DFM17 ser=22043153 Radiosonde
K9SWXD220431532022-12-07 12:08:0040.3168-87.42847914116598Clb=4.1m/s t=-65.5C h=-1.0% p=-1.0hPa 405.011 MHz Type=DFM17 ser=22043153 Radiosonde
K9SWXD220431532022-12-07 12:06:5540.3139-87.44277213116458Clb=4.2m/s t=-65.2C h=-1.0% p=-1.0hPa 405.011 MHz Type=DFM17 ser=22043153 Radiosonde
K9SWXD220431532022-12-07 12:05:4940.3109-87.45647513916319Clb=4.9m/s t=-64.9C h=-1.0% p=-1.0hPa 405.011 MHz Type=DFM17 ser=22043153 Radiosonde
K9SWXD220431532022-12-07 12:04:4340.3085-87.47047213916166Clb=5.4m/s t=-65.2C h=-1.0% p=-1.0hPa 405.011 MHz Type=DFM17 ser=22043153 Radiosonde
K9SWXD220431532022-12-07 12:03:5040.3064-87.48346913916008Clb=4.8m/s t=-64.4C h=-1.0% p=-1.0hPa 405.011 MHz Type=DFM17 ser=22043153 Radiosonde
K9SWXD220431532022-12-07 12:03:2640.3057-87.49818613315839Clb=4.3m/s t=-65.2C h=-1.0% p=-1.0hPa 405.011 MHz Type=DFM17 ser=22043153 Radiosonde
K9SWXD220431532022-12-07 12:02:5240.3022-87.57049615715146Clb=4.0m/s t=-64.5C h=-1.0% p=-1.0hPa 405.011 MHz Type=DFM17 ser=22043153 Radiosonde
K9SWXD220431532022-12-07 12:02:5040.3035-87.58719716115006Clb=5.3m/s t=-64.5C h=-1.0% p=-1.0hPa 405.011 MHz Type=DFM17 ser=22043153 Radiosonde
K9SWXD220431532022-12-07 12:02:2340.3058-87.62128918714737Clb=4.9m/s t=-63.7C h=-1.0% p=-1.0hPa 405.011 MHz Type=DFM17 ser=22043153 Radiosonde
K9SWXD220431532022-12-07 12:01:5940.3059-87.6239718714723Clb=3.9m/s t=-63.8C h=-1.0% p=-1.0hPa 405.011 MHz Type=DFM17 ser=22043153 Radiosonde
K9SWXD220431532022-12-07 12:01:5540.3062-87.64198920014597Clb=5.0m/s t=-64.0C h=-1.0% p=-1.0hPa 405.011 MHz Type=DFM17 ser=22043153 Radiosonde
K9SWXD220431532022-12-07 12:01:5140.306-87.66139120214467Clb=3.4m/s t=-64.3C h=-1.0% p=-1.0hPa 405.011 MHz Type=DFM17 ser=22043153 Radiosonde
K9SWXD220431532022-12-07 12:01:4840.3062-87.68019119414335Clb=5.5m/s t=-64.1C h=-1.0% p=-1.0hPa 405.011 MHz Type=DFM17 ser=22043153 Radiosonde
K9SWXD220431532022-12-07 12:01:4540.3074-87.79420714184Clb=4.0m/s t=-63.4C h=-1.0% p=-1.0hPa 405.011 MHz Type=DFM17 ser=22043153 Radiosonde
K9SWXD220431532022-12-07 12:01:2140.3086-87.72098922414046Clb=3.6m/s t=-62.9C h=-1.0% p=-1.0hPa 405.011 MHz Type=DFM17 ser=22043153 Radiosonde
K9SWXD220431532022-12-07 12:00:2140.3087-87.74278421713907Clb=3.7m/s t=-63.0C h=-1.0% p=-1.0hPa 405.011 MHz Type=DFM17 ser=22043153 Radiosonde
K9SWXD220431532022-12-07 11:59:1540.3075-87.76528321313767Clb=5.5m/s t=-62.7C h=-1.0% p=-1.0hPa 405.011 MHz Type=DFM17 ser=22043153 Radiosonde
K9SWXD220431532022-12-07 11:58:0840.3055-87.78598221113633Clb=4.6m/s t=-63.1C h=-1.0% p=-1.0hPa 405.011 MHz Type=DFM17 ser=22043153 Radiosonde
K9SWXD220431532022-12-07 11:56:5440.3035-87.80688320413494Clb=3.1m/s t=-62.5C h=-1.0% p=-1.0hPa 405.011 MHz Type=DFM17 ser=22043153 Radiosonde
K9SWXD220431532022-12-07 11:55:5040.3025-87.8288721113358Clb=4.3m/s t=-62.0C h=-1.0% p=-1.0hPa 405.011 MHz Type=DFM17 ser=22043153 Radiosonde
K9SWXD220431532022-12-07 11:54:5140.3017-87.84938821313216Clb=3.8m/s t=-61.9C h=-1.0% p=-1.0hPa 405.011 MHz Type=DFM17 ser=22043153 Radiosonde
K9SWXD220431532022-12-07 11:53:5240.3011-87.87128621313073Clb=3.9m/s t=-61.6C h=-1.0% p=-1.0hPa 405.011 MHz Type=DFM17 ser=22043153 Radiosonde
K9SWXD220431532022-12-07 11:52:5240.3007-87.89258821512944Clb=5.3m/s t=-60.9C h=-1.0% p=-1.0hPa 405.011 MHz Type=DFM17 ser=22043153 Radiosonde
K9SWXD220431532022-12-07 11:51:5540.3007-87.91549122212804Clb=4.3m/s t=-60.1C h=-1.0% p=-1.0hPa 405.011 MHz Type=DFM17 ser=22043153 Radiosonde
K9SWXD220431532022-12-07 11:51:2440.3008-87.93728623512674Clb=5.2m/s t=-59.8C h=-1.0% p=-1.0hPa 405.011 MHz Type=DFM17 ser=22043153 Radiosonde
K9SWXD220431532022-12-07 11:51:1840.2851-88.10998024411790Clb=4.5m/s t=-57.8C h=-1.0% p=-1.0hPa 405.011 MHz Type=DFM17 ser=22043153 Radiosonde
K9SWXD220431532022-12-07 11:51:1640.2822-88.13488025211662Clb=4.8m/s t=-57.1C h=-1.0% p=-1.0hPa 405.011 MHz Type=DFM17 ser=22043153 Radiosonde
K9SWXD220431532022-12-07 11:51:1440.2795-88.16088325611525Clb=4.0m/s t=-56.3C h=-1.0% p=-1.0hPa 405.011 MHz Type=DFM17 ser=22043153 Radiosonde
K9SWXD220431532022-12-07 11:51:1240.2778-88.18778427011392Clb=4.9m/s t=-55.9C h=-1.0% p=-1.0hPa 405.011 MHz Type=DFM17 ser=22043153 Radiosonde
K9SWXD220431532022-12-07 11:50:3740.2755-88.21598327211258Clb=5.3m/s t=-55.5C h=-1.0% p=-1.0hPa 405.011 MHz Type=DFM17 ser=22043153 Radiosonde
K9SWXD220431532022-12-07 11:49:4240.2733-88.24258426711132Clb=5.1m/s t=-54.5C h=-1.0% p=-1.0hPa 405.011 MHz Type=DFM17 ser=22043153 Radiosonde
K9SWXD220431532022-12-07 11:48:4640.2711-88.26978427011005Clb=3.9m/s t=-53.5C h=-1.0% p=-1.0hPa 405.011 MHz Type=DFM17 ser=22043153 Radiosonde
K9SWXD220431532022-12-07 11:47:4840.2686-88.29718227610880Clb=4.0m/s t=-52.8C h=-1.0% p=-1.0hPa 405.011 MHz Type=DFM17 ser=22043153 Radiosonde
K9SWXD220431532022-12-07 11:46:4640.2663-88.32458328010754Clb=3.5m/s t=-51.9C h=-1.0% p=-1.0hPa 405.011 MHz Type=DFM17 ser=22043153 Radiosonde
K9SWXD220431532022-12-07 11:45:5040.2641-88.3538328010624Clb=3.5m/s t=-50.8C h=-1.0% p=-1.0hPa 405.011 MHz Type=DFM17 ser=22043153 Radiosonde
K9SWXD220431532022-12-07 11:44:5140.2618-88.37968327610503Clb=3.6m/s t=-49.8C h=-1.0% p=-1.0hPa 405.011 MHz Type=DFM17 ser=22043153 Radiosonde
K9SWXD220431532022-12-07 11:44:0140.2596-88.40838426910371Clb=5.0m/s t=-48.7C h=-1.0% p=-1.0hPa 405.011 MHz Type=DFM17 ser=22043153 Radiosonde
K9SWXD220431532022-12-07 11:43:5440.2573-88.43558326910240Clb=3.6m/s t=-47.9C h=-1.0% p=-1.0hPa 405.011 MHz Type=DFM17 ser=22043153 Radiosonde
K9SWXD220431532022-12-07 11:43:4540.2552-88.46318326710108Clb=3.2m/s t=-46.7C h=-1.0% p=-1.0hPa 405.011 MHz Type=DFM17 ser=22043153 Radiosonde
K9SWXD220431532022-12-07 11:43:2140.253-88.4887822639980Clb=5.5m/s t=-45.6C h=-1.0% p=-1.0hPa 405.011 MHz Type=DFM17 ser=22043153 Radiosonde
K9SWXD220431532022-12-07 11:42:5140.2503-88.5148802619855Clb=3.4m/s t=-45.0C h=-1.0% p=-1.0hPa 405.011 MHz Type=DFM17 ser=22043153 Radiosonde
K9SWXD220431532022-12-07 11:42:1140.2477-88.5401832489734Clb=4.7m/s t=-44.2C h=-1.0% p=-1.0hPa 405.011 MHz Type=DFM17 ser=22043153 Radiosonde
K9SWXD220431532022-12-07 11:41:1740.2452-88.5648822399605Clb=5.3m/s t=-43.7C h=-1.0% p=-1.0hPa 405.011 MHz Type=DFM17 ser=22043153 Radiosonde
K9SWXD220431532022-12-07 11:40:2340.2427-88.5895842359468Clb=3.8m/s t=-42.7C h=-1.0% p=-1.0hPa 405.011 MHz Type=DFM17 ser=22043153 Radiosonde
K9SWXD220431532022-12-07 11:39:4540.2401-88.6158802489319Clb=3.5m/s t=-41.4C h=-1.0% p=-1.0hPa 405.011 MHz Type=DFM17 ser=22043153 Radiosonde
K9SWXD220431532022-12-07 11:38:4740.2378-88.6367822379205Clb=5.0m/s t=-40.8C h=-1.0% p=-1.0hPa 405.011 MHz Type=DFM17 ser=22043153 Radiosonde
K9SWXD220431532022-12-07 11:37:4640.235-88.6597812329076Clb=4.8m/s t=-40.3C h=-1.0% p=-1.0hPa 405.011 MHz Type=DFM17 ser=22043153 Radiosonde
K9SWXD220431532022-12-07 11:36:4540.2325-88.6834832228942Clb=4.7m/s t=-39.1C h=-1.0% p=-1.0hPa 405.011 MHz Type=DFM17 ser=22043153 Radiosonde
K9SWXD220431532022-12-07 11:35:5240.2304-88.7051822198816Clb=4.9m/s t=-38.0C h=-1.0% p=-1.0hPa 405.011 MHz Type=DFM17 ser=22043153 Radiosonde
K9SWXD220431532022-12-07 11:35:2140.2282-88.7274832198696Clb=4.3m/s t=-37.3C h=-1.0% p=-1.0hPa 405.011 MHz Type=DFM17 ser=22043153 Radiosonde
K9SWXD220431532022-12-07 11:34:5040.2264-88.7491831918575Clb=7.4m/s t=-36.9C h=-1.0% p=-1.0hPa 405.011 MHz Type=DFM17 ser=22043153 Radiosonde
K9SWXD220431532022-12-07 11:34:4240.2242-88.7703812118409Clb=7.4m/s t=-35.5C h=-1.0% p=-1.0hPa 405.011 MHz Type=DFM17 ser=22043153 Radiosonde
K9SWXD220431532022-12-07 11:34:4040.2215-88.7914802048268Clb=4.3m/s t=-34.8C h=-1.0% p=-1.0hPa 405.011 MHz Type=DFM17 ser=22043153 Radiosonde
K9SWXD220431532022-12-07 11:34:0440.2189-88.8105781968145Clb=4.2m/s t=-34.8C h=-1.0% p=-1.0hPa 405.011 MHz Type=DFM17 ser=22043153 Radiosonde
K9SWXD220431532022-12-07 11:33:1440.2164-88.8299841838019Clb=4.7m/s t=-34.7C h=-1.0% p=-1.0hPa 405.011 MHz Type=DFM17 ser=22043153 Radiosonde
K9SWXD220431532022-12-07 11:32:2240.2142-88.8471811727885Clb=3.5m/s t=-34.2C h=-1.0% p=-1.0hPa 405.011 MHz Type=DFM17 ser=22043153 Radiosonde
K9SWXD220431532022-12-07 11:31:4440.2113-88.8664761747746Clb=3.2m/s t=-33.0C h=-1.0% p=-1.0hPa 405.011 MHz Type=DFM17 ser=22043153 Radiosonde
K9SWXD220431532022-12-07 11:31:1340.2085-88.8818711707626Clb=3.4m/s t=-32.6C h=-1.0% p=-1.0hPa 405.011 MHz Type=DFM17 ser=22043153 Radiosonde
K9SWXD220431532022-12-07 11:30:4240.2062-88.8988831677473Clb=6.8m/s t=-32.7C h=-1.0% p=-1.0hPa 405.011 MHz Type=DFM17 ser=22043153 Radiosonde
K9SWXD220431532022-12-07 11:30:1140.2038-88.914761577323Clb=6.2m/s t=-31.3C h=-1.0% p=-1.0hPa 405.011 MHz Type=DFM17 ser=22043153 Radiosonde
K9SWXD220431532022-12-07 11:29:5340.2012-88.9302761657181Clb=5.1m/s t=-273.0C h=-1.0% p=-1.0hPa 405.011 MHz Type=DFM17 ser=22043153 Radiosonde
K9SWXD220431532022-12-07 11:29:3640.1968-88.9554781576985Clb=4.2m/s t=-273.0C h=-1.0% p=-1.0hPa 405.011 MHz Type=DFM17 ser=22043153 Radiosonde